Terminal Aerodrome Forecast
Issued by NWS

Home | Current Version | Previous Version | Text Only | Print | Product List | Glossary On
Versions: 1 2 3 4 5 6 7 8 9 10 11 12 13 14 15 16 17 18 19 20 21 22 23 24 25 26
000
FTUS43 KABR 231500 AAB
TAFPIR
TAF AMD
KPIR 231516Z 2315/2412 10015KT P6SM OVC010
      TEMPO 2315/2318 P6SM -RA BKN008
     FM232000 12013KT P6SM VCSH BKN020 OVC050
     FM240000 16008KT P6SM VCTS BKN050CB
     FM240300 29009KT P6SM SCT120 BKN250=

USA.gov is the U.S. government's official web portal to all federal, state and local government web resources and services.